EPPO/POZ METAR and TAF weather

Enter ICAO airport designator
Station Type Date Time Source
EPPO METAR 2019/02/23 17:30 UTC NOAA

EPPO 231730Z 20003KT CAVOK M02/M10 Q1043


Station Type Date Time Source
EPPO Decoded METAR 2019/02/23 17:30 UTC NOAA

Poznan, Poland (EPPO) 52-25N 016-50E 92M
Feb 23, 2019 - 12:30 PM EST / 2019.02.23 1730 UTC
Wind: from the SSW (200 degrees) at 3 MPH (3 KT):0
Visibility: greater than 7 mile(s):0
Temperature: 28 F (-2 C)
Dew Point: 14 F (-10 C)
Relative Humidity: 54%
Pressure (altimeter): 30.80 in. Hg (1043 hPa)
ob: EPPO 231730Z 20003KT CAVOK M02/M10 Q1043
cycle: 17

Station Type Date Time Source
EPPO TAF 2019/02/23 18:33 UTC NOAA

TAF EPPO 231730Z 2318/2418 19002KT CAVOK
BECMG 2323/2401 25010KT


Example: see airport list